createdAt,value
2022-10-03T00:00:13.330Z,4.60
2022-10-03T00:01:18.853Z,3.78
2022-10-03T00:02:12.673Z,3.90
2022-10-03T00:03:22.789Z,4.57
2022-10-03T00:04:07.289Z,5.63
2022-10-03T00:05:11.288Z,4.55
2022-10-03T00:05:54.350Z,4.45
2022-10-03T00:06:44.951Z,4.10
2022-10-03T00:07:38.613Z,4.47
2022-10-03T00:08:27.888Z,4.78
2022-10-03T00:09:21.332Z,4.68
2022-10-03T00:10:05.852Z,5.18
2022-10-03T00:10:52.851Z,5.38
2022-10-03T00:11:35.894Z,5.40
2022-10-03T00:12:17.644Z,4.70
2022-10-03T00:13:03.733Z,5.15
2022-10-03T00:13:44.562Z,5.05
2022-10-03T00:14:26.513Z,4.93
2022-10-03T00:15:04.431Z,5.43
2022-10-03T00:15:44.404Z,5.72
2022-10-03T00:16:20.377Z,5.05
2022-10-03T00:17:02.109Z,5.70
2022-10-03T00:17:45.801Z,5.43
2022-10-03T00:18:35.861Z,5.47
2022-10-03T00:19:21.312Z,4.90
2022-10-03T00:20:03.069Z,5.30
2022-10-03T00:20:48.997Z,5.60
2022-10-03T00:21:35.281Z,6.10
2022-10-03T00:22:18.410Z,6.13
2022-10-03T00:22:55.724Z,3.85
2022-10-03T00:23:37.996Z,5.30
2022-10-03T00:24:22.964Z,5.10
2022-10-03T00:25:12.470Z,5.03
2022-10-03T00:25:56.766Z,5.43
2022-10-03T00:26:37.101Z,5.10
2022-10-03T00:27:15.106Z,5.00
2022-10-03T00:27:52.826Z,5.53
2022-10-03T00:28:50.126Z,5.53
2022-10-03T00:29:47.288Z,5.97
2022-10-03T00:30:21.924Z,6.63
2022-10-03T00:31:09.231Z,5.55
2022-10-03T00:31:52.489Z,5.20
2022-10-03T00:32:38.983Z,5.63
2022-10-03T00:33:19.190Z,6.28
2022-10-03T00:34:03.144Z,5.65
2022-10-03T00:34:53.707Z,4.82
2022-10-03T00:35:49.077Z,6.93
2022-10-03T00:36:31.828Z,8.07
2022-10-03T00:37:26.604Z,6.10
2022-10-03T00:38:20.676Z,5.45
2022-10-03T00:39:24.521Z,5.40
2022-10-03T00:40:33.850Z,5.40
2022-10-03T00:41:19.965Z,5.82
2022-10-03T00:42:32.806Z,6.05
2022-10-03T00:43:41.333Z,7.57
2022-10-03T00:44:51.738Z,5.85
2022-10-03T00:45:56.725Z,5.50
2022-10-03T00:47:11.385Z,5.13
2022-10-03T00:48:02.030Z,6.65
2022-10-03T00:49:13.657Z,6.22
2022-10-03T00:50:19.487Z,9.07
2022-10-03T00:51:20.217Z,6.50
2022-10-03T00:52:03.142Z,5.90
2022-10-03T00:52:48.268Z,7.18
2022-10-03T00:53:44.197Z,5.97
2022-10-03T00:54:45.320Z,6.25
2022-10-03T00:55:28.332Z,6.22
2022-10-03T00:56:21.562Z,7.22
2022-10-03T00:57:09.514Z,6.72
2022-10-03T00:57:58.850Z,6.15
2022-10-03T00:58:45.968Z,7.22
2022-10-03T00:59:34.616Z,6.15
2022-10-03T01:00:17.406Z,6.05
2022-10-03T01:00:52.232Z,8.25
2022-10-03T01:01:34.250Z,6.55
2022-10-03T01:02:30.615Z,9.05
2022-10-03T01:03:19.319Z,6.65
2022-10-03T01:04:06.312Z,9.05
2022-10-03T01:04:53.268Z,7.00
2022-10-03T01:05:38.129Z,6.60
2022-10-03T01:06:28.762Z,7.07
2022-10-03T01:07:13.345Z,7.30
2022-10-03T01:08:12.863Z,6.95
2022-10-03T01:09:29.208Z,7.32
2022-10-03T01:10:10.029Z,6.93
2022-10-03T01:10:52.789Z,7.90
2022-10-03T01:11:38.716Z,11.50
2022-10-03T01:12:35.218Z,9.20
2022-10-03T01:13:23.483Z,6.80
2022-10-03T01:14:08.053Z,6.78
2022-10-03T01:14:54.379Z,6.78
2022-10-03T01:15:37.776Z,6.88
2022-10-03T01:16:18.993Z,7.93
2022-10-03T01:17:02.472Z,7.40
2022-10-03T01:17:48.358Z,8.80
2022-10-03T01:18:32.491Z,8.68
2022-10-03T01:19:22.988Z,7.55
2022-10-03T01:20:15.187Z,11.60
2022-10-03T01:20:58.194Z,7.25
2022-10-03T01:21:41.708Z,7.85
2022-10-03T01:22:38.682Z,7.70
2022-10-03T01:23:58.106Z,7.80
2022-10-03T01:24:50.691Z,7.13
2022-10-03T01:25:38.529Z,8.38
2022-10-03T01:26:30.781Z,8.23
2022-10-03T01:27:04.959Z,8.73
2022-10-03T01:28:00.293Z,8.32
2022-10-03T01:29:04.744Z,7.60
2022-10-03T01:30:05.747Z,7.55
2022-10-03T01:30:42.346Z,7.30
2022-10-03T01:31:17.826Z,8.07
2022-10-03T01:31:58.116Z,7.45
2022-10-03T01:32:38.548Z,8.02
2022-10-03T01:33:15.963Z,7.75
2022-10-03T01:33:54.824Z,8.27
2022-10-03T01:34:32.349Z,8.73
2022-10-03T01:35:17.846Z,8.90
2022-10-03T01:35:55.078Z,9.88
2022-10-03T01:36:32.741Z,7.90
2022-10-03T01:37:11.595Z,8.40
2022-10-03T01:37:53.519Z,9.15
2022-10-03T01:38:29.807Z,10.43
2022-10-03T01:39:09.309Z,11.00
2022-10-03T01:39:51.721Z,8.30
2022-10-03T01:40:29.488Z,7.68
2022-10-03T01:41:07.841Z,9.60
2022-10-03T01:41:49.789Z,8.95
2022-10-03T01:42:40.885Z,7.85
2022-10-03T01:43:21.034Z,8.77
2022-10-03T01:44:00.672Z,8.52
2022-10-03T01:44:45.425Z,9.18
2022-10-03T01:45:29.042Z,9.02
2022-10-03T01:46:09.379Z,8.60
2022-10-03T01:46:48.135Z,11.82
2022-10-03T01:47:24.578Z,8.45
2022-10-03T01:48:02.094Z,8.05
2022-10-03T01:48:43.870Z,8.60
2022-10-03T01:49:21.615Z,7.80
2022-10-03T01:49:59.980Z,9.38
2022-10-03T01:50:38.888Z,9.73
2022-10-03T01:51:13.866Z,8.73
2022-10-03T01:51:55.097Z,8.43
2022-10-03T01:52:40.284Z,8.93
2022-10-03T01:53:19.642Z,14.98
2022-10-03T01:54:14.844Z,8.05
2022-10-03T01:54:54.341Z,8.82
2022-10-03T01:55:34.893Z,11.23
2022-10-03T01:56:15.221Z,9.82
2022-10-03T01:56:55.313Z,7.80
2022-10-03T01:57:36.424Z,8.93
2022-10-03T01:58:12.205Z,9.23
2022-10-03T01:58:52.168Z,10.40
2022-10-03T01:59:38.409Z,9.73
2022-10-03T02:00:13.797Z,9.85
2022-10-03T02:00:52.930Z,11.05
2022-10-03T02:01:32.397Z,8.50
2022-10-03T02:02:12.458Z,9.57
2022-10-03T02:02:49.842Z,8.63
2022-10-03T02:03:27.854Z,9.45
2022-10-03T02:04:06.732Z,9.07
2022-10-03T02:04:45.963Z,8.98
2022-10-03T02:05:25.950Z,9.55
2022-10-03T02:06:06.634Z,8.88
2022-10-03T02:06:47.957Z,9.85
2022-10-03T02:07:30.075Z,9.02
2022-10-03T02:08:05.886Z,8.32
2022-10-03T02:08:50.038Z,9.63
2022-10-03T02:09:31.870Z,8.68
2022-10-03T02:10:13.192Z,12.45
2022-10-03T02:10:53.156Z,8.13
2022-10-03T02:11:31.980Z,14.57
2022-10-03T02:12:09.793Z,9.73
2022-10-03T02:12:51.599Z,9.75
2022-10-03T02:13:27.487Z,9.02
2022-10-03T02:14:15.137Z,9.20
2022-10-03T02:14:54.990Z,8.60
2022-10-03T02:15:31.096Z,9.55
2022-10-03T02:16:11.119Z,10.00
2022-10-03T02:16:45.170Z,8.43
2022-10-03T02:17:28.312Z,10.55
2022-10-03T02:18:12.830Z,9.75
2022-10-03T02:18:54.740Z,7.80
2022-10-03T02:19:30.571Z,8.70
2022-10-03T02:20:08.893Z,8.52
2022-10-03T02:20:47.447Z,8.57
2022-10-03T02:21:21.633Z,11.40
2022-10-03T02:21:56.826Z,10.05
2022-10-03T02:22:33.141Z,9.73
2022-10-03T02:23:24.602Z,10.05
2022-10-03T02:24:18.790Z,8.93
2022-10-03T02:24:56.800Z,12.55
2022-10-03T02:25:51.537Z,8.85
2022-10-03T02:26:58.667Z,9.10
2022-10-03T02:27:54.996Z,8.82
2022-10-03T02:28:59.008Z,8.45
2022-10-03T02:30:08.448Z,9.15
2022-10-03T02:30:57.546Z,9.65
2022-10-03T02:31:59.334Z,8.95
2022-10-03T02:33:02.894Z,12.50
2022-10-03T02:34:01.909Z,8.35
2022-10-03T02:35:05.075Z,10.93
2022-10-03T02:35:56.466Z,9.88
2022-10-03T02:37:23.442Z,8.88
2022-10-03T02:38:13.875Z,9.00
2022-10-03T02:39:08.555Z,8.43
2022-10-03T02:40:25.294Z,9.30
2022-10-03T02:41:18.585Z,10.70
2022-10-03T02:42:17.999Z,9.90
2022-10-03T02:43:38.170Z,8.35
2022-10-03T02:44:42.311Z,8.85
2022-10-03T02:45:55.410Z,9.25
2022-10-03T02:47:03.446Z,9.15
2022-10-03T02:48:39.419Z,9.02
2022-10-03T02:49:40.206Z,10.05
2022-10-03T02:50:48.576Z,9.15
2022-10-03T02:52:05.518Z,9.50
2022-10-03T02:53:16.080Z,8.20
2022-10-03T02:54:20.962Z,9.13
2022-10-03T02:55:38.386Z,8.65
2022-10-03T02:56:34.560Z,9.60
2022-10-03T02:57:42.124Z,8.93
2022-10-03T02:58:42.178Z,8.73
2022-10-03T02:59:45.649Z,8.85
2022-10-03T03:00:20.900Z,9.77
2022-10-03T03:01:24.764Z,9.50
2022-10-03T03:02:32.689Z,10.90
2022-10-03T03:03:42.530Z,8.93
2022-10-03T03:04:56.497Z,8.60
2022-10-03T03:05:44.969Z,11.40
2022-10-03T03:06:43.766Z,12.23
2022-10-03T03:07:31.630Z,12.50
2022-10-03T03:08:37.696Z,8.32
2022-10-03T03:09:54.325Z,9.63
2022-10-03T03:11:06.553Z,8.52
2022-10-03T03:12:03.032Z,8.27
2022-10-03T03:13:07.390Z,9.52
2022-10-03T03:14:00.121Z,8.77
2022-10-03T03:15:18.924Z,15.70
2022-10-03T03:16:33.445Z,10.05
2022-10-03T03:17:24.356Z,9.85
2022-10-03T03:18:04.682Z,11.48
2022-10-03T03:18:39.888Z,9.48
2022-10-03T03:19:19.664Z,9.25
2022-10-03T03:20:10.641Z,10.55
2022-10-03T03:21:02.581Z,8.73
2022-10-03T03:21:42.320Z,10.15
2022-10-03T03:22:32.231Z,10.05
2022-10-03T03:23:19.913Z,9.07
2022-10-03T03:24:10.666Z,10.30
2022-10-03T03:25:01.156Z,11.40
2022-10-03T03:25:47.426Z,9.30
2022-10-03T03:26:54.189Z,8.95
2022-10-03T03:27:47.696Z,9.25
2022-10-03T03:28:33.265Z,10.10
2022-10-03T03:29:14.744Z,9.73
2022-10-03T03:29:57.679Z,12.23
2022-10-03T03:30:36.819Z,9.75
2022-10-03T03:31:12.599Z,10.38
2022-10-03T03:31:51.690Z,11.25
2022-10-03T03:32:42.841Z,8.75
2022-10-03T03:33:26.385Z,9.45
2022-10-03T03:34:07.429Z,10.00
2022-10-03T03:34:50.117Z,10.38
2022-10-03T03:35:33.753Z,10.75
2022-10-03T03:36:13.691Z,10.50
2022-10-03T03:36:54.191Z,11.45
2022-10-03T03:37:34.474Z,12.48
2022-10-03T03:38:18.231Z,10.55
2022-10-03T03:38:59.949Z,11.30
2022-10-03T03:39:54.508Z,16.35
2022-10-03T03:40:39.725Z,10.25
2022-10-03T03:41:23.540Z,10.93
2022-10-03T03:42:20.849Z,10.95
2022-10-03T03:43:24.768Z,11.00
2022-10-03T03:44:13.309Z,10.65
2022-10-03T03:45:02.385Z,11.23
2022-10-03T03:45:46.467Z,10.88
2022-10-03T03:46:33.088Z,11.70
2022-10-03T03:47:28.412Z,9.80
2022-10-03T03:48:25.597Z,10.85
2022-10-03T03:49:08.038Z,10.55
2022-10-03T03:49:57.910Z,12.40
2022-10-03T03:50:39.629Z,11.18
2022-10-03T03:51:22.886Z,10.23
2022-10-03T03:52:10.385Z,12.90
2022-10-03T03:52:56.937Z,13.77
2022-10-03T03:53:54.973Z,10.65
2022-10-03T03:54:55.393Z,13.18
2022-10-03T03:55:48.550Z,10.10
2022-10-03T03:56:43.400Z,12.68
2022-10-03T03:57:28.958Z,10.73
2022-10-03T03:58:13.651Z,14.95
2022-10-03T03:58:54.703Z,13.05
2022-10-03T03:59:41.754Z,15.35
2022-10-03T04:00:17.581Z,11.68
2022-10-03T04:01:03.852Z,11.45
2022-10-03T04:01:56.608Z,10.57
2022-10-03T04:02:53.338Z,13.32
2022-10-03T04:03:38.721Z,9.93
2022-10-03T04:04:22.822Z,11.00
2022-10-03T04:05:08.301Z,10.10
2022-10-03T04:05:56.825Z,12.00
2022-10-03T04:06:41.670Z,10.60
2022-10-03T04:07:27.311Z,10.95
2022-10-03T04:08:23.815Z,10.77
2022-10-03T04:09:16.899Z,12.02
2022-10-03T04:10:11.376Z,12.70
2022-10-03T04:10:54.325Z,11.18
2022-10-03T04:11:33.154Z,10.82
2022-10-03T04:12:15.544Z,10.20
2022-10-03T04:13:28.986Z,13.45
2022-10-03T04:14:24.191Z,10.57
2022-10-03T04:15:11.186Z,11.90
2022-10-03T04:16:01.159Z,13.95
2022-10-03T04:17:10.096Z,10.93
2022-10-03T04:18:17.806Z,10.52
2022-10-03T04:19:03.455Z,11.50
2022-10-03T04:19:48.646Z,10.32
2022-10-03T04:20:33.371Z,12.50
2022-10-03T04:21:42.173Z,11.00
2022-10-03T04:22:31.005Z,11.25
2022-10-03T04:23:21.416Z,9.55
2022-10-03T04:24:19.676Z,10.15
2022-10-03T04:25:17.954Z,10.63
2022-10-03T04:26:10.839Z,11.07
2022-10-03T04:26:59.542Z,10.45
2022-10-03T04:27:53.509Z,14.88
2022-10-03T04:28:44.707Z,11.10
2022-10-03T04:29:41.596Z,12.65
2022-10-03T04:30:17.597Z,10.45
2022-10-03T04:31:02.481Z,12.13
2022-10-03T04:31:44.316Z,12.43
2022-10-03T04:32:41.523Z,11.57
2022-10-03T04:33:29.543Z,10.95
2022-10-03T04:34:21.578Z,12.13
2022-10-03T04:35:25.736Z,12.38
2022-10-03T04:36:23.340Z,9.25
2022-10-03T04:37:28.338Z,12.65
2022-10-03T04:38:12.007Z,10.57
2022-10-03T04:38:51.665Z,11.32
2022-10-03T04:39:33.400Z,10.48
2022-10-03T04:40:25.697Z,17.73
2022-10-03T04:41:05.900Z,10.45
2022-10-03T04:41:45.584Z,10.70
2022-10-03T04:42:40.897Z,11.02
2022-10-03T04:43:20.042Z,10.50
2022-10-03T04:44:00.201Z,11.48
2022-10-03T04:44:44.233Z,11.48
2022-10-03T04:45:31.570Z,13.73
2022-10-03T04:46:22.974Z,10.82
2022-10-03T04:46:58.702Z,11.60
2022-10-03T04:47:39.283Z,12.35
2022-10-03T04:48:16.600Z,10.07
2022-10-03T04:48:56.384Z,11.23
2022-10-03T04:49:36.861Z,11.73
2022-10-03T04:50:24.598Z,11.77
2022-10-03T04:51:07.321Z,11.07
2022-10-03T04:51:55.564Z,12.70
2022-10-03T04:52:39.193Z,11.20
2022-10-03T04:53:22.956Z,10.80
2022-10-03T04:54:02.248Z,13.85
2022-10-03T04:54:48.169Z,10.90
2022-10-03T04:55:28.792Z,10.93
2022-10-03T04:56:14.061Z,13.27
2022-10-03T04:56:53.958Z,9.00
2022-10-03T04:57:35.513Z,11.82
2022-10-03T04:58:18.520Z,9.88
2022-10-03T04:58:56.230Z,10.65
2022-10-03T04:59:46.235Z,12.10
2022-10-03T05:00:24.187Z,11.13
2022-10-03T05:01:06.434Z,14.10
2022-10-03T05:01:50.370Z,11.25
2022-10-03T05:02:47.718Z,11.25
2022-10-03T05:03:36.809Z,11.43
2022-10-03T05:04:22.059Z,11.13
2022-10-03T05:05:27.873Z,15.00
2022-10-03T05:06:06.008Z,10.52
2022-10-03T05:06:48.950Z,13.43
2022-10-03T05:07:29.006Z,10.77
2022-10-03T05:08:12.695Z,10.32
2022-10-03T05:08:52.742Z,9.40
2022-10-03T05:09:32.466Z,10.80
2022-10-03T05:10:23.995Z,13.27
2022-10-03T05:11:12.244Z,10.43
2022-10-03T05:12:00.672Z,20.15
2022-10-03T05:12:44.317Z,10.70
2022-10-03T05:13:22.869Z,11.15
2022-10-03T05:14:03.503Z,9.50
2022-10-03T05:14:52.136Z,11.82
2022-10-03T05:15:30.976Z,11.27
2022-10-03T05:16:14.656Z,11.00
2022-10-03T05:16:54.742Z,13.48
2022-10-03T05:17:37.301Z,10.40
2022-10-03T05:18:19.780Z,10.20
2022-10-03T05:19:01.807Z,12.38
2022-10-03T05:20:05.025Z,9.88
2022-10-03T05:20:47.342Z,9.93
2022-10-03T05:21:32.326Z,11.10
2022-10-03T05:22:17.060Z,9.95
2022-10-03T05:22:57.982Z,10.35
2022-10-03T05:23:45.784Z,9.20
2022-10-03T05:24:27.547Z,9.40
2022-10-03T05:25:11.761Z,12.75
2022-10-03T05:25:53.818Z,10.88
2022-10-03T05:26:50.381Z,11.63
2022-10-03T05:27:29.449Z,10.27
2022-10-03T05:28:10.933Z,9.80
2022-10-03T05:28:52.949Z,10.45
2022-10-03T05:29:32.243Z,10.90
2022-10-03T05:30:09.095Z,11.13
2022-10-03T05:30:46.052Z,10.88
2022-10-03T05:31:33.304Z,10.38
2022-10-03T05:32:17.822Z,10.85
2022-10-03T05:32:56.561Z,9.32
2022-10-03T05:33:39.428Z,9.57
2022-10-03T05:34:21.922Z,10.15
2022-10-03T05:35:18.518Z,9.98
2022-10-03T05:36:10.713Z,13.05
2022-10-03T05:36:58.816Z,9.93
2022-10-03T05:37:51.069Z,10.95
2022-10-03T05:39:21.353Z,12.40
2022-10-03T05:39:58.628Z,10.23
2022-10-03T05:40:35.054Z,9.68
2022-10-03T05:41:23.831Z,10.10
2022-10-03T05:42:23.253Z,9.60
2022-10-03T05:43:05.763Z,10.95
2022-10-03T05:43:50.197Z,12.25
2022-10-03T05:44:39.088Z,10.50
2022-10-03T05:45:24.315Z,9.43
2022-10-03T05:46:09.053Z,9.07
2022-10-03T05:46:56.821Z,10.25
2022-10-03T05:47:49.252Z,9.95
2022-10-03T05:48:33.136Z,11.13
2022-10-03T05:49:28.479Z,9.38
2022-10-03T05:50:28.846Z,10.18
2022-10-03T05:51:33.826Z,9.40
2022-10-03T05:52:34.388Z,13.13
2022-10-03T05:53:24.732Z,8.40
2022-10-03T05:54:57.289Z,9.77
2022-10-03T05:55:40.791Z,9.20
2022-10-03T05:56:27.361Z,9.10
2022-10-03T05:57:18.654Z,9.43
2022-10-03T05:58:14.965Z,10.10
2022-10-03T05:59:20.689Z,14.65
2022-10-03T06:00:14.886Z,9.50
2022-10-03T06:01:13.150Z,9.65
2022-10-03T06:02:15.130Z,17.95
2022-10-03T06:03:00.249Z,16.40
2022-10-03T06:04:05.071Z,14.15
2022-10-03T06:05:14.320Z,10.35
2022-10-03T06:06:17.963Z,11.60
2022-10-03T06:07:04.906Z,9.00
2022-10-03T06:07:52.632Z,10.45
2022-10-03T06:08:48.394Z,10.02
2022-10-03T06:09:57.972Z,9.10
2022-10-03T06:10:51.823Z,9.65
2022-10-03T06:11:55.841Z,9.55
2022-10-03T06:12:34.258Z,9.10
2022-10-03T06:13:26.651Z,9.05
2022-10-03T06:14:28.917Z,8.70
2022-10-03T06:15:25.624Z,9.23
2022-10-03T06:16:06.628Z,8.68
2022-10-03T06:16:49.273Z,9.00
2022-10-03T06:17:53.656Z,9.40
2022-10-03T06:18:58.650Z,7.70
2022-10-03T06:19:48.285Z,9.75
2022-10-03T06:21:00.995Z,9.50
2022-10-03T06:22:10.282Z,6.97
2022-10-03T06:23:21.360Z,8.65
2022-10-03T06:24:21.347Z,9.07
2022-10-03T06:25:31.400Z,8.82
2022-10-03T06:26:43.594Z,8.77
2022-10-03T06:28:02.372Z,11.85
2022-10-03T06:29:04.032Z,16.10
2022-10-03T06:30:07.633Z,10.10
2022-10-03T06:31:00.672Z,8.00
2022-10-03T06:32:16.563Z,9.35
2022-10-03T06:33:17.332Z,10.80
2022-10-03T06:34:17.261Z,9.00
2022-10-03T06:35:24.773Z,8.23
2022-10-03T06:36:22.617Z,9.25
2022-10-03T06:37:51.177Z,10.88
2022-10-03T06:38:56.432Z,9.10
2022-10-03T06:39:55.694Z,8.50
2022-10-03T06:41:04.263Z,9.93
2022-10-03T06:42:25.828Z,9.60
2022-10-03T06:43:26.036Z,9.48
2022-10-03T06:44:25.227Z,8.13
2022-10-03T06:45:40.719Z,9.65
2022-10-03T06:46:52.550Z,8.60
2022-10-03T06:47:38.658Z,10.85
2022-10-03T06:48:36.158Z,10.20
2022-10-03T06:49:31.152Z,11.25
2022-10-03T06:50:38.715Z,10.68
2022-10-03T06:51:45.024Z,8.40
2022-10-03T06:52:49.184Z,8.52
2022-10-03T06:53:44.471Z,8.90
2022-10-03T06:55:05.335Z,9.45
2022-10-03T06:56:04.609Z,8.05
2022-10-03T06:57:06.456Z,8.90
2022-10-03T06:58:17.114Z,9.90
2022-10-03T06:59:10.517Z,12.80
2022-10-03T07:00:09.113Z,10.80
2022-10-03T07:00:55.883Z,7.88
2022-10-03T07:02:04.732Z,12.55
2022-10-03T07:03:24.444Z,8.93
2022-10-03T07:04:46.063Z,10.38
2022-10-03T07:06:03.537Z,8.65
2022-10-03T07:07:08.810Z,11.63
2022-10-03T07:08:29.729Z,9.48
2022-10-03T07:09:53.648Z,11.00
2022-10-03T07:10:42.845Z,11.00
2022-10-03T07:11:34.549Z,9.75
2022-10-03T07:12:47.361Z,8.60
2022-10-03T07:14:09.697Z,7.95
2022-10-03T07:15:15.901Z,9.32
2022-10-03T07:16:26.892Z,8.82
2022-10-03T07:17:18.201Z,10.35
2022-10-03T07:18:20.402Z,8.65
2022-10-03T07:19:15.101Z,7.50
2022-10-03T07:20:26.879Z,10.43
2022-10-03T07:21:41.667Z,12.52
2022-10-03T07:22:50.427Z,8.18
2022-10-03T07:24:03.322Z,10.07
2022-10-03T07:25:19.074Z,9.35
2022-10-03T07:26:21.647Z,10.75
2022-10-03T07:27:24.830Z,12.98
2022-10-03T07:28:22.917Z,12.68
2022-10-03T07:29:23.361Z,10.02
2022-10-03T07:30:10.545Z,9.60
2022-10-03T07:31:02.527Z,9.50
2022-10-03T07:31:45.875Z,10.13
2022-10-03T07:32:42.308Z,9.10
2022-10-03T07:33:58.724Z,12.10
2022-10-03T07:35:03.161Z,10.27
2022-10-03T07:36:02.172Z,9.98
2022-10-03T07:37:13.640Z,9.35
2022-10-03T07:38:43.516Z,11.15
2022-10-03T07:39:56.518Z,12.25
2022-10-03T07:40:56.770Z,10.98
2022-10-03T07:42:00.614Z,9.95
2022-10-03T07:43:12.732Z,12.98
2022-10-03T07:44:15.993Z,11.80
2022-10-03T07:45:20.377Z,9.10
2022-10-03T07:46:20.878Z,9.50
2022-10-03T07:47:39.879Z,13.05
2022-10-03T07:49:01.269Z,9.30
2022-10-03T07:49:55.400Z,10.68
2022-10-03T07:50:51.766Z,10.07
2022-10-03T07:51:32.012Z,9.38
2022-10-03T07:52:43.637Z,8.40
2022-10-03T07:53:43.287Z,16.90
2022-10-03T07:54:51.148Z,10.77
2022-10-03T07:55:33.558Z,9.80
2022-10-03T07:56:25.345Z,9.15
2022-10-03T07:57:11.973Z,10.07
2022-10-03T07:58:18.294Z,10.60
2022-10-03T07:59:13.593Z,10.80
2022-10-03T08:00:05.473Z,8.88
2022-10-03T08:00:55.261Z,8.98
2022-10-03T08:01:47.364Z,10.15
2022-10-03T08:02:50.489Z,9.45
2022-10-03T08:04:08.345Z,14.82
2022-10-03T08:05:14.441Z,8.88
2022-10-03T08:06:26.524Z,11.40
2022-10-03T08:07:11.680Z,12.40
2022-10-03T08:08:09.289Z,13.75
2022-10-03T08:09:05.391Z,15.00
2022-10-03T08:09:59.171Z,9.85
2022-10-03T08:11:00.329Z,9.52
2022-10-03T08:12:18.581Z,8.85
2022-10-03T08:13:11.080Z,16.35
2022-10-03T08:14:13.154Z,9.60
2022-10-03T08:14:56.916Z,11.73
2022-10-03T08:15:36.098Z,9.48
2022-10-03T08:16:23.939Z,9.70
2022-10-03T08:17:49.748Z,11.75
2022-10-03T08:18:57.840Z,13.07
2022-10-03T08:19:56.001Z,8.18
2022-10-03T08:20:48.341Z,9.88
2022-10-03T08:21:30.728Z,9.65
2022-10-03T08:22:11.665Z,9.07
2022-10-03T08:22:59.329Z,9.25
2022-10-03T08:24:21.677Z,8.30
2022-10-03T08:25:27.021Z,9.25
2022-10-03T08:26:13.683Z,10.68
2022-10-03T08:27:13.748Z,8.50
2022-10-03T08:28:24.237Z,12.68
2022-10-03T08:29:19.856Z,14.23
2022-10-03T08:30:18.793Z,11.82
2022-10-03T08:31:17.565Z,10.25
2022-10-03T08:32:21.193Z,10.25
2022-10-03T08:33:21.780Z,9.70
2022-10-03T08:34:23.329Z,10.13
2022-10-03T08:35:12.901Z,11.43
2022-10-03T08:36:34.408Z,10.90
2022-10-03T08:37:38.632Z,10.95
2022-10-03T08:38:50.957Z,10.57
2022-10-03T08:39:42.177Z,9.70
2022-10-03T08:40:54.288Z,11.02
2022-10-03T08:42:17.526Z,11.13
2022-10-03T08:43:15.393Z,13.30
2022-10-03T08:44:25.030Z,12.65
2022-10-03T08:45:23.621Z,11.23
2022-10-03T08:46:07.053Z,10.40
2022-10-03T08:47:11.300Z,13.60
2022-10-03T08:48:20.777Z,11.00
2022-10-03T08:49:02.506Z,10.63
2022-10-03T08:50:05.670Z,10.73
2022-10-03T08:51:04.201Z,10.00
2022-10-03T08:51:58.790Z,11.73
2022-10-03T08:52:43.423Z,10.70
2022-10-03T08:54:02.590Z,10.18
2022-10-03T08:55:03.236Z,11.95
2022-10-03T08:55:47.818Z,10.82
2022-10-03T08:56:25.454Z,11.18
2022-10-03T08:57:14.682Z,11.75
2022-10-03T08:58:20.426Z,11.75
2022-10-03T08:59:46.964Z,13.27
2022-10-03T09:00:21.667Z,13.32
2022-10-03T09:01:30.171Z,11.52
2022-10-03T09:02:43.295Z,16.27
2022-10-03T09:03:44.606Z,11.63
2022-10-03T09:04:54.740Z,10.38
2022-10-03T09:05:46.466Z,14.05
2022-10-03T09:07:05.138Z,11.98
2022-10-03T09:08:18.165Z,9.98
2022-10-03T09:09:14.883Z,11.32
2022-10-03T09:10:19.281Z,11.35
2022-10-03T09:11:17.065Z,11.70
2022-10-03T09:12:25.837Z,9.95
2022-10-03T09:13:14.274Z,9.93
2022-10-03T09:14:20.312Z,10.05
2022-10-03T09:15:22.347Z,10.52
2022-10-03T09:16:25.990Z,12.27
2022-10-03T09:17:12.074Z,9.25
2022-10-03T09:18:21.600Z,11.27
2022-10-03T09:19:07.127Z,10.07
2022-10-03T09:20:04.951Z,9.90
2022-10-03T09:21:06.946Z,13.90
2022-10-03T09:22:06.119Z,12.70
2022-10-03T09:23:21.729Z,9.40
2022-10-03T09:24:18.485Z,9.38
2022-10-03T09:25:19.727Z,12.15
2022-10-03T09:26:13.238Z,12.98
2022-10-03T09:27:25.086Z,16.02
2022-10-03T09:28:36.066Z,11.50
2022-10-03T09:29:41.102Z,11.02
2022-10-03T09:30:26.925Z,16.17
2022-10-03T09:31:16.460Z,11.90
2022-10-03T09:32:30.464Z,10.98
2022-10-03T09:33:41.934Z,10.70
2022-10-03T09:34:39.043Z,10.15
2022-10-03T09:35:50.584Z,11.32
2022-10-03T09:36:55.931Z,10.30
2022-10-03T09:38:03.931Z,9.85
2022-10-03T09:38:57.319Z,9.32
2022-10-03T09:40:07.610Z,9.65
2022-10-03T09:41:15.892Z,9.38
2022-10-03T09:42:25.594Z,12.00
2022-10-03T09:43:24.997Z,9.07
2022-10-03T09:44:23.777Z,9.30
2022-10-03T09:45:32.339Z,10.63
2022-10-03T09:46:31.214Z,7.85
2022-10-03T09:47:35.043Z,8.50
2022-10-03T09:48:27.481Z,8.57
2022-10-03T09:49:27.873Z,9.50
2022-10-03T09:50:43.218Z,8.77
2022-10-03T09:51:34.131Z,8.25
2022-10-03T09:52:32.918Z,8.43
2022-10-03T09:53:47.635Z,8.43
2022-10-03T09:54:54.085Z,9.40
2022-10-03T09:55:41.571Z,11.40
2022-10-03T09:56:41.224Z,8.77
2022-10-03T09:57:40.121Z,8.00
2022-10-03T09:58:35.933Z,8.18
2022-10-03T09:59:30.743Z,7.72
2022-10-03T10:00:16.333Z,7.30
2022-10-03T10:01:16.245Z,8.38
2022-10-03T10:01:57.268Z,8.02
2022-10-03T10:03:09.178Z,9.18
2022-10-03T10:04:12.985Z,7.15
2022-10-03T10:05:02.295Z,10.30
2022-10-03T10:06:03.543Z,11.40
2022-10-03T10:06:48.675Z,8.32
2022-10-03T10:08:00.245Z,6.70
2022-10-03T10:09:08.156Z,6.78
2022-10-03T10:10:18.470Z,8.45
2022-10-03T10:11:17.930Z,7.78
2022-10-03T10:12:19.073Z,7.50
2022-10-03T10:13:20.903Z,10.65
2022-10-03T10:14:30.300Z,8.30
2022-10-03T10:15:28.172Z,6.70
2022-10-03T10:16:16.817Z,8.38
2022-10-03T10:17:37.266Z,12.18
2022-10-03T10:18:35.764Z,6.10
2022-10-03T10:19:40.984Z,7.95
2022-10-03T10:20:30.560Z,7.10
2022-10-03T10:21:49.918Z,7.03
2022-10-03T10:22:53.736Z,6.45
2022-10-03T10:23:47.785Z,7.63
2022-10-03T10:24:58.749Z,5.97
2022-10-03T10:25:50.061Z,9.43
2022-10-03T10:27:00.579Z,9.10
2022-10-03T10:28:19.286Z,7.28
2022-10-03T10:29:17.880Z,5.82
2022-10-03T10:30:19.770Z,6.63
2022-10-03T10:31:18.767Z,6.78
2022-10-03T10:32:29.304Z,6.40
2022-10-03T10:33:29.761Z,6.70
2022-10-03T10:34:44.209Z,7.55
2022-10-03T10:35:51.955Z,9.68
2022-10-03T10:37:05.665Z,8.10
2022-10-03T10:38:20.921Z,6.60
2022-10-03T10:39:44.569Z,11.85
2022-10-03T10:40:59.781Z,7.32
2022-10-03T10:42:15.898Z,7.47
2022-10-03T10:43:25.066Z,6.30
2022-10-03T10:44:37.456Z,6.75
2022-10-03T10:45:35.836Z,6.07
2022-10-03T10:46:36.685Z,6.30
2022-10-03T10:47:50.910Z,5.25
2022-10-03T10:49:24.074Z,5.85
2022-10-03T10:50:29.607Z,6.13
2022-10-03T10:51:40.546Z,6.90
2022-10-03T10:52:45.648Z,5.82
2022-10-03T10:54:10.164Z,6.40
2022-10-03T10:55:16.929Z,8.45
2022-10-03T10:56:27.644Z,8.52
2022-10-03T10:57:33.139Z,9.88
2022-10-03T10:58:58.002Z,7.00
2022-10-03T11:00:15.112Z,6.45
2022-10-03T11:01:24.867Z,5.75
2022-10-03T11:02:31.947Z,10.30
2022-10-03T11:03:59.281Z,5.68
2022-10-03T11:05:07.021Z,18.33
2022-10-03T11:06:41.696Z,5.30
2022-10-03T11:07:55.877Z,13.02
2022-10-03T11:09:14.430Z,9.15
2022-10-03T11:10:33.652Z,8.30
2022-10-03T11:11:32.792Z,4.68
2022-10-03T11:12:45.659Z,4.65
2022-10-03T11:14:11.613Z,4.35
2022-10-03T11:15:28.269Z,4.07
2022-10-03T11:16:41.610Z,6.82
2022-10-03T11:17:57.661Z,4.13
2022-10-03T11:19:08.134Z,4.25
2022-10-03T11:20:10.142Z,5.43
2022-10-03T11:21:25.810Z,5.38
2022-10-03T11:22:32.168Z,4.43
2022-10-03T11:23:56.112Z,4.35
2022-10-03T11:25:05.141Z,4.78
2022-10-03T11:26:27.750Z,5.85
2022-10-03T11:27:39.592Z,6.13
2022-10-03T11:28:46.879Z,5.45
2022-10-03T11:29:50.625Z,4.28
2022-10-03T11:30:56.881Z,6.03
2022-10-03T11:32:08.240Z,5.13
2022-10-03T11:33:19.749Z,4.78
2022-10-03T11:34:23.596Z,10.13
2022-10-03T11:35:45.180Z,6.45
2022-10-03T11:36:59.050Z,7.13
2022-10-03T11:37:40.785Z,11.77
2022-10-03T11:38:20.269Z,10.65
2022-10-03T11:39:02.922Z,12.68
2022-10-03T11:39:43.394Z,10.52
2022-10-03T11:40:31.211Z,5.10
2022-10-03T11:41:14.341Z,6.85
2022-10-03T11:41:52.311Z,5.00
2022-10-03T11:42:32.817Z,4.65
2022-10-03T11:43:56.379Z,6.15
2022-10-03T11:44:34.736Z,4.95
2022-10-03T11:45:16.829Z,5.40
2022-10-03T11:45:54.364Z,8.93
2022-10-03T11:46:48.102Z,4.47
2022-10-03T11:47:55.031Z,6.00
2022-10-03T11:48:38.914Z,3.75
2022-10-03T11:49:31.323Z,4.03
2022-10-03T11:50:27.232Z,4.40
2022-10-03T11:51:05.355Z,8.55
2022-10-03T11:51:43.005Z,7.80
2022-10-03T11:52:27.909Z,8.30
2022-10-03T11:53:14.798Z,5.40
2022-10-03T11:53:51.014Z,6.18
2022-10-03T11:54:31.545Z,5.70
2022-10-03T11:55:20.646Z,5.28
2022-10-03T11:56:04.482Z,5.93
2022-10-03T11:56:39.964Z,4.28